Sperry, OK (74073)

11:57 AM CDT on July 02, 2015 (GMT -0500)
The Lakes of Bailey Ranch | | Change Station
CLOSE
Current Station
Personal Weather Station
Location: Owasso, OK
Elevation: 650 ft
Nearby Weather Stations

Elev 650 ft 36.29 °N, 95.87 °W | Updated 1 second ago

Partly Cloudy
Partly Cloudy
91.7 °F
Feels Like 101 °F
N
2.1
Wind Variable Wind from NW
Gusts 3.5 mph

Today
High -- | Low -- °F
--% Chance of Precip.
Yesterday
High -- | Low -- °F
Precip. -- in
6:10 AM 8:45 PM
Full, 100% visible
Pressure 29.84 in
Visibility 10.0 miles
Clouds Few 3800 ft
Mostly Cloudy 16000 ft
Mostly Cloudy 25000 ft
Heat Index 101 °F
Dew Point 74 °F
Humidity 56%
Rainfall 0.00 in
Snow Depth Not available.
UV 6 out of 12
Pollen 1.60 out of 12
Air Quality Not available.
Flu Activity Not available.
METAR KTUL 021653Z 29006KT 10SM FEW038 BKN160 BKN250 33/23 A2987 RMK AO2 SLP103 T03280228

More Conditions Fewer Conditions

Pressure 29.84 in
Visibility 10.0 miles
Clouds Few 3800 ft
Mostly Cloudy 16000 ft
Mostly Cloudy 25000 ft
Heat Index 101 °F
Dew Point 74 °F
Humidity 56%
Rainfall 0.00 in
Snow Depth Not available.
UV 6 out of 12
Pollen 1.60 out of 12
Air Quality Not available.
Flu Activity Not available.
METAR KTUL 021653Z 29006KT 10SM FEW038 BKN160 BKN250 33/23 A2987 RMK AO2 SLP103 T03280228

More Conditions Fewer Conditions

Nowcast | as of 11:04 am CDT on July 2, 2015

At 11:04 am...National Weather Service Doppler radars continued to detect a few remaining light rain showers over southeast Oklahoma. The precipitation had decreased in intensity and coverage over the past hour. Rainfall amounts were very light...between a trace to a couple hundredths of an inch. The remaining showers are expected to diminish over the next hour. This will be the last short term forecast until additional showers and storms develop later this afternoon or evening.

×

10-Day Weather Forecast

×

Almanac

Astronomy

Jul. 02, 2015 Rise Set
Actual Time
Civil Twilight
Nautical Twilight
Astronomical Twilight
Moon
Length of Visible Light
Length of Day
Tomorrow will be .
, % of the Moon is Illuminated

Today's Extremes

State Highs State Lows

Community

WunderPhotos

Upload Photos

1,834,498 photos uploaded!

WunderBlogs® & News

Nearby

Air Quality

  Air Quality AQ Index Pollutant
Not available.

Snow Depth

Station Depth Elevation

Earthquake Activity

City Distance Mag. Time & Date
Minimum magnitude displayed is 2.5.

Coastal Water Temperatures

Place Temperature

Stations

Nearby Weather Stations

Station Location Temp. Windchill Dew Point Humidity Wind Precip. Elev Updated Type